sensor_id;sensor_type;location;lat;lon;timestamp;P1;durP1;ratioP1;P2;durP2;ratioP2
12535;SDS011;6334;48.696;2.114;2022-11-15T00:01:08;6.30;;;3.33;;
12535;SDS011;6334;48.696;2.114;2022-11-15T00:03:40;6.42;;;3.40;;
12535;SDS011;6334;48.696;2.114;2022-11-15T00:06:10;6.82;;;3.30;;
12535;SDS011;6334;48.696;2.114;2022-11-15T00:08:40;5.63;;;3.40;;
12535;SDS011;6334;48.696;2.114;2022-11-15T00:11:12;7.35;;;3.33;;
12535;SDS011;6334;48.696;2.114;2022-11-15T00:13:42;7.03;;;3.43;;
12535;SDS011;6334;48.696;2.114;2022-11-15T00:16:12;6.83;;;3.93;;
12535;SDS011;6334;48.696;2.114;2022-11-15T00:18:50;5.87;;;3.23;;
12535;SDS011;6334;48.696;2.114;2022-11-15T00:21:20;5.73;;;3.23;;
12535;SDS011;6334;48.696;2.114;2022-11-15T00:23:50;4.35;;;3.33;;
12535;SDS011;6334;48.696;2.114;2022-11-15T00:26:20;6.62;;;3.30;;
12535;SDS011;6334;48.696;2.114;2022-11-15T00:28:59;6.77;;;3.08;;
12535;SDS011;6334;48.696;2.114;2022-11-15T00:31:29;3.97;;;2.87;;
12535;SDS011;6334;48.696;2.114;2022-11-15T00:33:58;4.25;;;2.87;;
12535;SDS011;6334;48.696;2.114;2022-11-15T00:36:28;3.83;;;2.80;;
12535;SDS011;6334;48.696;2.114;2022-11-15T00:38:58;5.10;;;3.00;;
12535;SDS011;6334;48.696;2.114;2022-11-15T00:41:30;4.09;;;2.70;;
12535;SDS011;6334;48.696;2.114;2022-11-15T00:44:00;5.97;;;3.23;;
12535;SDS011;6334;48.696;2.114;2022-11-15T00:46:33;5.33;;;2.93;;
12535;SDS011;6334;48.696;2.114;2022-11-15T00:49:04;6.57;;;3.20;;
12535;SDS011;6334;48.696;2.114;2022-11-15T00:51:34;6.47;;;3.50;;
12535;SDS011;6334;48.696;2.114;2022-11-15T00:54:09;6.54;;;3.14;;
12535;SDS011;6334;48.696;2.114;2022-11-15T00:56:39;12.00;;;3.10;;
12535;SDS011;6334;48.696;2.114;2022-11-15T00:59:11;7.60;;;3.57;;
12535;SDS011;6334;48.696;2.114;2022-11-15T01:01:43;3.57;;;2.37;;
12535;SDS011;6334;48.696;2.114;2022-11-15T01:04:13;5.20;;;3.10;;
12535;SDS011;6334;48.696;2.114;2022-11-15T01:06:47;5.26;;;2.98;;
12535;SDS011;6334;48.696;2.114;2022-11-15T01:09:17;4.47;;;2.75;;
12535;SDS011;6334;48.696;2.114;2022-11-15T01:11:48;4.30;;;2.83;;
12535;SDS011;6334;48.696;2.114;2022-11-15T01:14:22;4.63;;;2.40;;
12535;SDS011;6334;48.696;2.114;2022-11-15T01:16:54;7.13;;;3.40;;
12535;SDS011;6334;48.696;2.114;2022-11-15T01:19:23;4.90;;;2.73;;
12535;SDS011;6334;48.696;2.114;2022-11-15T01:21:57;3.47;;;2.43;;
12535;SDS011;6334;48.696;2.114;2022-11-15T01:24:28;6.87;;;2.50;;
12535;SDS011;6334;48.696;2.114;2022-11-15T01:27:00;4.57;;;2.75;;
12535;SDS011;6334;48.696;2.114;2022-11-15T01:29:31;5.03;;;2.77;;
12535;SDS011;6334;48.696;2.114;2022-11-15T01:32:01;5.10;;;2.12;;
12535;SDS011;6334;48.696;2.114;2022-11-15T01:34:31;4.20;;;2.10;;
12535;SDS011;6334;48.696;2.114;2022-11-15T01:37:00;5.08;;;2.52;;
12535;SDS011;6334;48.696;2.114;2022-11-15T01:39:30;3.40;;;2.10;;
12535;SDS011;6334;48.696;2.114;2022-11-15T01:42:05;5.66;;;2.53;;
12535;SDS011;6334;48.696;2.114;2022-11-15T01:44:42;5.10;;;2.37;;
12535;SDS011;6334;48.696;2.114;2022-11-15T01:50:00;2.81;;;2.37;;
12535;SDS011;6334;48.696;2.114;2022-11-15T01:52:32;7.45;;;2.75;;
12535;SDS011;6334;48.696;2.114;2022-11-15T01:55:04;4.98;;;2.60;;
12535;SDS011;6334;48.696;2.114;2022-11-15T01:57:34;5.90;;;2.40;;
12535;SDS011;6334;48.696;2.114;2022-11-15T02:00:05;2.30;;;2.00;;
12535;SDS011;6334;48.696;2.114;2022-11-15T02:02:37;4.37;;;2.27;;
12535;SDS011;6334;48.696;2.114;2022-11-15T02:05:12;2.59;;;2.36;;
12535;SDS011;6334;48.696;2.114;2022-11-15T02:07:55;5.03;;;2.70;;
12535;SDS011;6334;48.696;2.114;2022-11-15T02:10:25;2.54;;;2.34;;
12535;SDS011;6334;48.696;2.114;2022-11-15T02:12:55;4.03;;;2.67;;
12535;SDS011;6334;48.696;2.114;2022-11-15T02:15:25;2.37;;;2.16;;
12535;SDS011;6334;48.696;2.114;2022-11-15T02:18:18;6.19;;;2.82;;
12535;SDS011;6334;48.696;2.114;2022-11-15T02:20:55;4.63;;;2.47;;
12535;SDS011;6334;48.696;2.114;2022-11-15T02:29:09;3.83;;;2.17;;
12535;SDS011;6334;48.696;2.114;2022-11-15T02:31:43;4.13;;;2.10;;
12535;SDS011;6334;48.696;2.114;2022-11-15T02:37:02;5.51;;;2.90;;
12535;SDS011;6334;48.696;2.114;2022-11-15T02:39:36;8.23;;;2.75;;
12535;SDS011;6334;48.696;2.114;2022-11-15T02:42:28;3.61;;;2.44;;
12535;SDS011;6334;48.696;2.114;2022-11-15T02:45:22;5.87;;;2.67;;
12535;SDS011;6334;48.696;2.114;2022-11-15T02:47:51;3.43;;;2.70;;
12535;SDS011;6334;48.696;2.114;2022-11-15T02:50:21;5.73;;;2.43;;
12535;SDS011;6334;48.696;2.114;2022-11-15T02:52:55;5.35;;;2.64;;
12535;SDS011;6334;48.696;2.114;2022-11-15T02:55:36;2.72;;;2.20;;
12535;SDS011;6334;48.696;2.114;2022-11-15T03:04:02;5.13;;;2.60;;
12535;SDS011;6334;48.696;2.114;2022-11-15T03:06:39;5.14;;;2.57;;
12535;SDS011;6334;48.696;2.114;2022-11-15T03:09:19;5.12;;;3.22;;
12535;SDS011;6334;48.696;2.114;2022-11-15T03:12:00;6.30;;;2.33;;
12535;SDS011;6334;48.696;2.114;2022-11-15T03:14:31;5.03;;;2.58;;
12535;SDS011;6334;48.696;2.114;2022-11-15T03:19:49;3.78;;;2.26;;
12535;SDS011;6334;48.696;2.114;2022-11-15T03:22:18;3.27;;;2.26;;
12535;SDS011;6334;48.696;2.114;2022-11-15T03:24:58;7.69;;;2.84;;
12535;SDS011;6334;48.696;2.114;2022-11-15T03:27:28;7.30;;;2.80;;
12535;SDS011;6334;48.696;2.114;2022-11-15T03:30:02;5.43;;;2.14;;
12535;SDS011;6334;48.696;2.114;2022-11-15T03:32:30;3.78;;;2.13;;
12535;SDS011;6334;48.696;2.114;2022-11-15T03:35:04;4.23;;;2.64;;
12535;SDS011;6334;48.696;2.114;2022-11-15T03:37:45;4.22;;;2.34;;
12535;SDS011;6334;48.696;2.114;2022-11-15T03:40:36;5.71;;;2.36;;
12535;SDS011;6334;48.696;2.114;2022-11-15T03:43:13;6.76;;;2.90;;
12535;SDS011;6334;48.696;2.114;2022-11-15T03:45:49;7.43;;;2.62;;
12535;SDS011;6334;48.696;2.114;2022-11-15T03:48:26;4.80;;;2.27;;
12535;SDS011;6334;48.696;2.114;2022-11-15T03:50:58;4.65;;;2.39;;
12535;SDS011;6334;48.696;2.114;2022-11-15T03:53:29;3.17;;;2.08;;
12535;SDS011;6334;48.696;2.114;2022-11-15T03:56:09;4.91;;;2.38;;
12535;SDS011;6334;48.696;2.114;2022-11-15T03:58:40;4.18;;;2.08;;
12535;SDS011;6334;48.696;2.114;2022-11-15T04:01:10;5.50;;;2.47;;
12535;SDS011;6334;48.696;2.114;2022-11-15T04:03:42;4.07;;;2.43;;
12535;SDS011;6334;48.696;2.114;2022-11-15T04:06:19;8.90;;;2.47;;
12535;SDS011;6334;48.696;2.114;2022-11-15T04:08:49;5.67;;;2.40;;
12535;SDS011;6334;48.696;2.114;2022-11-15T04:11:27;6.34;;;2.45;;
12535;SDS011;6334;48.696;2.114;2022-11-15T04:13:59;5.11;;;1.71;;
12535;SDS011;6334;48.696;2.114;2022-11-15T04:16:37;5.20;;;2.80;;
12535;SDS011;6334;48.696;2.114;2022-11-15T04:19:07;5.03;;;2.13;;
12535;SDS011;6334;48.696;2.114;2022-11-15T04:21:56;7.07;;;3.03;;
12535;SDS011;6334;48.696;2.114;2022-11-15T04:24:45;7.57;;;2.33;;
12535;SDS011;6334;48.696;2.114;2022-11-15T04:27:19;6.39;;;2.21;;
12535;SDS011;6334;48.696;2.114;2022-11-15T04:29:49;4.05;;;2.30;;
12535;SDS011;6334;48.696;2.114;2022-11-15T04:32:19;4.00;;;2.43;;
12535;SDS011;6334;48.696;2.114;2022-11-15T04:34:49;7.07;;;2.30;;
12535;SDS011;6334;48.696;2.114;2022-11-15T04:37:30;6.73;;;2.40;;
12535;SDS011;6334;48.696;2.114;2022-11-15T04:40:04;3.89;;;2.27;;
12535;SDS011;6334;48.696;2.114;2022-11-15T04:42:35;2.30;;;1.95;;
12535;SDS011;6334;48.696;2.114;2022-11-15T04:45:09;4.03;;;2.37;;
12535;SDS011;6334;48.696;2.114;2022-11-15T04:47:39;3.10;;;2.20;;
12535;SDS011;6334;48.696;2.114;2022-11-15T04:50:09;5.00;;;2.40;;
12535;SDS011;6334;48.696;2.114;2022-11-15T04:52:43;3.47;;;2.58;;
12535;SDS011;6334;48.696;2.114;2022-11-15T04:55:13;4.91;;;2.57;;
12535;SDS011;6334;48.696;2.114;2022-11-15T04:57:43;5.22;;;2.47;;
12535;SDS011;6334;48.696;2.114;2022-11-15T05:00:13;5.97;;;2.33;;
12535;SDS011;6334;48.696;2.114;2022-11-15T05:02:47;5.03;;;2.04;;
12535;SDS011;6334;48.696;2.114;2022-11-15T05:05:35;5.07;;;2.57;;
12535;SDS011;6334;48.696;2.114;2022-11-15T05:08:05;5.83;;;2.53;;
12535;SDS011;6334;48.696;2.114;2022-11-15T05:10:37;4.58;;;2.70;;
12535;SDS011;6334;48.696;2.114;2022-11-15T05:13:10;6.20;;;2.90;;
12535;SDS011;6334;48.696;2.114;2022-11-15T05:15:40;7.27;;;2.33;;
12535;SDS011;6334;48.696;2.114;2022-11-15T05:18:19;3.47;;;2.40;;
12535;SDS011;6334;48.696;2.114;2022-11-15T05:20:48;2.76;;;2.56;;
12535;SDS011;6334;48.696;2.114;2022-11-15T05:23:33;4.53;;;2.77;;
12535;SDS011;6334;48.696;2.114;2022-11-15T05:26:05;4.64;;;2.24;;
12535;SDS011;6334;48.696;2.114;2022-11-15T05:31:34;4.75;;;2.51;;
12535;SDS011;6334;48.696;2.114;2022-11-15T05:34:06;2.47;;;2.27;;
12535;SDS011;6334;48.696;2.114;2022-11-15T05:36:37;3.15;;;2.60;;
12535;SDS011;6334;48.696;2.114;2022-11-15T05:39:18;7.64;;;3.03;;
12535;SDS011;6334;48.696;2.114;2022-11-15T05:41:49;5.93;;;2.87;;
12535;SDS011;6334;48.696;2.114;2022-11-15T05:44:19;6.72;;;2.76;;
12535;SDS011;6334;48.696;2.114;2022-11-15T05:46:49;4.75;;;3.50;;
12535;SDS011;6334;48.696;2.114;2022-11-15T05:49:21;7.62;;;3.40;;
12535;SDS011;6334;48.696;2.114;2022-11-15T05:51:50;4.85;;;3.10;;
12535;SDS011;6334;48.696;2.114;2022-11-15T05:54:34;6.72;;;3.30;;
12535;SDS011;6334;48.696;2.114;2022-11-15T05:57:10;5.50;;;2.90;;
12535;SDS011;6334;48.696;2.114;2022-11-15T05:59:40;4.13;;;2.87;;
12535;SDS011;6334;48.696;2.114;2022-11-15T06:02:14;6.36;;;2.99;;
12535;SDS011;6334;48.696;2.114;2022-11-15T06:04:45;4.27;;;3.00;;
12535;SDS011;6334;48.696;2.114;2022-11-15T06:07:14;5.03;;;3.10;;
12535;SDS011;6334;48.696;2.114;2022-11-15T06:09:44;4.57;;;3.17;;
12535;SDS011;6334;48.696;2.114;2022-11-15T06:12:14;5.24;;;3.37;;
12535;SDS011;6334;48.696;2.114;2022-11-15T06:14:44;6.70;;;3.50;;
12535;SDS011;6334;48.696;2.114;2022-11-15T06:17:21;6.73;;;3.40;;
12535;SDS011;6334;48.696;2.114;2022-11-15T06:23:34;5.07;;;3.17;;
12535;SDS011;6334;48.696;2.114;2022-11-15T06:26:03;5.40;;;3.28;;
12535;SDS011;6334;48.696;2.114;2022-11-15T06:28:34;5.10;;;3.00;;
12535;SDS011;6334;48.696;2.114;2022-11-15T06:34:09;4.90;;;3.30;;
12535;SDS011;6334;48.696;2.114;2022-11-15T06:36:39;5.20;;;3.23;;
12535;SDS011;6334;48.696;2.114;2022-11-15T06:39:21;6.30;;;3.26;;
12535;SDS011;6334;48.696;2.114;2022-11-15T06:41:51;6.57;;;2.30;;
12535;SDS011;6334;48.696;2.114;2022-11-15T06:44:21;7.19;;;3.35;;
12535;SDS011;6334;48.696;2.114;2022-11-15T06:46:50;5.62;;;2.62;;
12535;SDS011;6334;48.696;2.114;2022-11-15T06:49:20;4.63;;;2.43;;
12535;SDS011;6334;48.696;2.114;2022-11-15T06:51:55;7.91;;;3.46;;
12535;SDS011;6334;48.696;2.114;2022-11-15T06:54:27;4.07;;;3.00;;
12535;SDS011;6334;48.696;2.114;2022-11-15T06:56:57;5.20;;;3.23;;
12535;SDS011;6334;48.696;2.114;2022-11-15T06:59:28;4.87;;;3.23;;
12535;SDS011;6334;48.696;2.114;2022-11-15T07:01:58;3.88;;;2.58;;
12535;SDS011;6334;48.696;2.114;2022-11-15T07:04:44;4.33;;;2.77;;
12535;SDS011;6334;48.696;2.114;2022-11-15T07:07:28;6.43;;;2.91;;
12535;SDS011;6334;48.696;2.114;2022-11-15T07:09:59;6.15;;;2.90;;
12535;SDS011;6334;48.696;2.114;2022-11-15T07:12:31;6.12;;;3.10;;
12535;SDS011;6334;48.696;2.114;2022-11-15T07:15:01;3.44;;;2.97;;
12535;SDS011;6334;48.696;2.114;2022-11-15T07:17:31;4.90;;;2.63;;
12535;SDS011;6334;48.696;2.114;2022-11-15T07:20:02;3.63;;;2.87;;
12535;SDS011;6334;48.696;2.114;2022-11-15T07:22:32;4.51;;;2.90;;
12535;SDS011;6334;48.696;2.114;2022-11-15T07:25:02;5.23;;;2.80;;
12535;SDS011;6334;48.696;2.114;2022-11-15T07:27:40;3.93;;;2.93;;
12535;SDS011;6334;48.696;2.114;2022-11-15T07:30:15;5.38;;;3.11;;
12535;SDS011;6334;48.696;2.114;2022-11-15T07:32:45;3.70;;;2.37;;
12535;SDS011;6334;48.696;2.114;2022-11-15T07:35:14;4.58;;;3.12;;
12535;SDS011;6334;48.696;2.114;2022-11-15T07:37:52;3.57;;;2.61;;
12535;SDS011;6334;48.696;2.114;2022-11-15T07:40:16;4.40;;;2.77;;
12535;SDS011;6334;48.696;2.114;2022-11-15T07:42:45;4.63;;;2.80;;
12535;SDS011;6334;48.696;2.114;2022-11-15T07:48:02;4.49;;;2.75;;
12535;SDS011;6334;48.696;2.114;2022-11-15T07:50:34;4.03;;;2.90;;
12535;SDS011;6334;48.696;2.114;2022-11-15T07:53:11;3.76;;;2.47;;
12535;SDS011;6334;48.696;2.114;2022-11-15T07:55:50;5.96;;;3.04;;
12535;SDS011;6334;48.696;2.114;2022-11-15T07:58:20;2.53;;;2.33;;
12535;SDS011;6334;48.696;2.114;2022-11-15T08:00:50;5.38;;;2.32;;
12535;SDS011;6334;48.696;2.114;2022-11-15T08:03:20;4.03;;;2.20;;
12535;SDS011;6334;48.696;2.114;2022-11-15T08:05:51;6.90;;;2.80;;
12535;SDS011;6334;48.696;2.114;2022-11-15T08:08:21;5.20;;;2.83;;
12535;SDS011;6334;48.696;2.114;2022-11-15T08:10:53;4.77;;;2.87;;
12535;SDS011;6334;48.696;2.114;2022-11-15T08:13:30;5.06;;;2.69;;
12535;SDS011;6334;48.696;2.114;2022-11-15T08:16:07;3.94;;;2.49;;
12535;SDS011;6334;48.696;2.114;2022-11-15T08:18:46;4.49;;;2.49;;
12535;SDS011;6334;48.696;2.114;2022-11-15T08:21:24;2.81;;;2.19;;
12535;SDS011;6334;48.696;2.114;2022-11-15T08:23:58;3.20;;;2.03;;
12535;SDS011;6334;48.696;2.114;2022-11-15T08:26:33;6.27;;;2.87;;
12535;SDS011;6334;48.696;2.114;2022-11-15T08:29:05;2.67;;;2.14;;
12535;SDS011;6334;48.696;2.114;2022-11-15T08:38:00;7.62;;;2.49;;
12535;SDS011;6334;48.696;2.114;2022-11-15T08:40:32;4.07;;;2.10;;
12535;SDS011;6334;48.696;2.114;2022-11-15T08:43:09;4.28;;;2.58;;
12535;SDS011;6334;48.696;2.114;2022-11-15T08:45:40;3.13;;;2.20;;
12535;SDS011;6334;48.696;2.114;2022-11-15T08:48:25;4.51;;;2.28;;
12535;SDS011;6334;48.696;2.114;2022-11-15T08:50:59;4.43;;;2.53;;
12535;SDS011;6334;48.696;2.114;2022-11-15T08:53:33;4.07;;;2.20;;
12535;SDS011;6334;48.696;2.114;2022-11-15T08:56:09;3.97;;;2.20;;
12535;SDS011;6334;48.696;2.114;2022-11-15T08:58:39;2.30;;;2.10;;
12535;SDS011;6334;48.696;2.114;2022-11-15T09:01:16;3.17;;;2.63;;
12535;SDS011;6334;48.696;2.114;2022-11-15T09:03:46;2.57;;;1.80;;
12535;SDS011;6334;48.696;2.114;2022-11-15T09:06:16;6.27;;;2.17;;
12535;SDS011;6334;48.696;2.114;2022-11-15T09:08:47;2.40;;;2.20;;
12535;SDS011;6334;48.696;2.114;2022-11-15T09:11:36;3.09;;;2.15;;
12535;SDS011;6334;48.696;2.114;2022-11-15T09:14:11;3.07;;;1.87;;
12535;SDS011;6334;48.696;2.114;2022-11-15T09:16:41;3.50;;;2.10;;
12535;SDS011;6334;48.696;2.114;2022-11-15T09:19:12;2.43;;;1.77;;
12535;SDS011;6334;48.696;2.114;2022-11-15T09:21:43;3.12;;;1.98;;
12535;SDS011;6334;48.696;2.114;2022-11-15T09:24:14;3.07;;;1.80;;
12535;SDS011;6334;48.696;2.114;2022-11-15T09:26:50;2.57;;;1.67;;
12535;SDS011;6334;48.696;2.114;2022-11-15T09:29:26;2.77;;;1.92;;
12535;SDS011;6334;48.696;2.114;2022-11-15T09:31:56;2.17;;;1.97;;
12535;SDS011;6334;48.696;2.114;2022-11-15T09:34:31;3.30;;;2.10;;
12535;SDS011;6334;48.696;2.114;2022-11-15T09:37:03;2.93;;;2.20;;
12535;SDS011;6334;48.696;2.114;2022-11-15T09:39:34;7.53;;;2.10;;
12535;SDS011;6334;48.696;2.114;2022-11-15T09:42:23;2.00;;;1.90;;
12535;SDS011;6334;48.696;2.114;2022-11-15T09:48:03;2.63;;;1.77;;
12535;SDS011;6334;48.696;2.114;2022-11-15T09:53:41;3.17;;;2.20;;
12535;SDS011;6334;48.696;2.114;2022-11-15T09:56:14;7.50;;;2.70;;
12535;SDS011;6334;48.696;2.114;2022-11-15T09:59:05;3.00;;;2.15;;
12535;SDS011;6334;48.696;2.114;2022-11-15T10:01:41;6.16;;;2.68;;
12535;SDS011;6334;48.696;2.114;2022-11-15T10:04:23;2.57;;;2.37;;
12535;SDS011;6334;48.696;2.114;2022-11-15T10:07:09;4.33;;;2.90;;
12535;SDS011;6334;48.696;2.114;2022-11-15T10:09:37;3.17;;;2.53;;
12535;SDS011;6334;48.696;2.114;2022-11-15T10:12:08;4.56;;;3.12;;
12535;SDS011;6334;48.696;2.114;2022-11-15T10:14:37;3.90;;;2.73;;
12535;SDS011;6334;48.696;2.114;2022-11-15T10:23:33;3.53;;;1.87;;
12535;SDS011;6334;48.696;2.114;2022-11-15T10:26:04;4.27;;;2.93;;
12535;SDS011;6334;48.696;2.114;2022-11-15T10:32:01;3.37;;;3.07;;
12535;SDS011;6334;48.696;2.114;2022-11-15T10:34:35;4.07;;;2.73;;
12535;SDS011;6334;48.696;2.114;2022-11-15T10:37:09;2.57;;;2.37;;
12535;SDS011;6334;48.696;2.114;2022-11-15T10:39:39;3.23;;;2.60;;
12535;SDS011;6334;48.696;2.114;2022-11-15T10:42:16;3.04;;;2.36;;
12535;SDS011;6334;48.696;2.114;2022-11-15T10:47:53;2.93;;;2.40;;
12535;SDS011;6334;48.696;2.114;2022-11-15T10:50:31;4.47;;;2.73;;
12535;SDS011;6334;48.696;2.114;2022-11-15T10:53:03;2.63;;;2.33;;
12535;SDS011;6334;48.696;2.114;2022-11-15T10:55:34;2.55;;;2.35;;
12535;SDS011;6334;48.696;2.114;2022-11-15T10:58:30;4.33;;;2.60;;
12535;SDS011;6334;48.696;2.114;2022-11-15T11:01:19;4.62;;;3.17;;
12535;SDS011;6334;48.696;2.114;2022-11-15T11:04:03;3.47;;;2.63;;
12535;SDS011;6334;48.696;2.114;2022-11-15T11:06:53;4.03;;;2.40;;
12535;SDS011;6334;48.696;2.114;2022-11-15T11:09:36;3.98;;;2.77;;
12535;SDS011;6334;48.696;2.114;2022-11-15T11:12:09;3.93;;;2.83;;
12535;SDS011;6334;48.696;2.114;2022-11-15T11:14:41;3.10;;;2.87;;
12535;SDS011;6334;48.696;2.114;2022-11-15T11:20:10;3.77;;;2.63;;
12535;SDS011;6334;48.696;2.114;2022-11-15T11:34:15;3.43;;;2.43;;
12535;SDS011;6334;48.696;2.114;2022-11-15T11:36:45;6.57;;;3.33;;
12535;SDS011;6334;48.696;2.114;2022-11-15T11:39:35;3.40;;;2.70;;
12535;SDS011;6334;48.696;2.114;2022-11-15T11:44:38;5.12;;;3.10;;
12535;SDS011;6334;48.696;2.114;2022-11-15T11:50:25;5.37;;;3.10;;
12535;SDS011;6334;48.696;2.114;2022-11-15T11:52:52;3.70;;;3.17;;
12535;SDS011;6334;48.696;2.114;2022-11-15T11:55:36;2.46;;;2.32;;
12535;SDS011;6334;48.696;2.114;2022-11-15T11:58:15;2.49;;;2.34;;
12535;SDS011;6334;48.696;2.114;2022-11-15T12:05:50;4.33;;;2.63;;
12535;SDS011;6334;48.696;2.114;2022-11-15T12:08:33;3.13;;;2.83;;
12535;SDS011;6334;48.696;2.114;2022-11-15T12:11:15;3.13;;;2.83;;
12535;SDS011;6334;48.696;2.114;2022-11-15T12:13:44;5.73;;;3.20;;
12535;SDS011;6334;48.696;2.114;2022-11-15T12:18:51;7.30;;;3.25;;
12535;SDS011;6334;48.696;2.114;2022-11-15T12:24:23;4.97;;;2.83;;
12535;SDS011;6334;48.696;2.114;2022-11-15T12:29:46;3.85;;;3.33;;
12535;SDS011;6334;48.696;2.114;2022-11-15T12:32:24;4.67;;;2.90;;
12535;SDS011;6334;48.696;2.114;2022-11-15T12:35:01;6.97;;;3.00;;
12535;SDS011;6334;48.696;2.114;2022-11-15T12:42:57;5.73;;;3.53;;
12535;SDS011;6334;48.696;2.114;2022-11-15T12:45:30;4.17;;;3.33;;
12535;SDS011;6334;48.696;2.114;2022-11-15T12:50:55;4.30;;;3.12;;
12535;SDS011;6334;48.696;2.114;2022-11-15T12:53:28;3.03;;;2.80;;
12535;SDS011;6334;48.696;2.114;2022-11-15T13:07:01;3.45;;;3.10;;
12535;SDS011;6334;48.696;2.114;2022-11-15T13:14:57;4.06;;;3.28;;
12535;SDS011;6334;48.696;2.114;2022-11-15T13:31:27;3.43;;;3.13;;
12535;SDS011;6334;48.696;2.114;2022-11-15T13:34:43;3.67;;;3.04;;
12535;SDS011;6334;48.696;2.114;2022-11-15T13:36:55;3.67;;;3.37;;
12535;SDS011;6334;48.696;2.114;2022-11-15T13:41:56;4.23;;;3.20;;
12535;SDS011;6334;48.696;2.114;2022-11-15T13:44:31;4.53;;;3.33;;
12535;SDS011;6334;48.696;2.114;2022-11-15T13:49:46;3.67;;;3.37;;
12535;SDS011;6334;48.696;2.114;2022-11-15T13:52:16;4.70;;;3.67;;
12535;SDS011;6334;48.696;2.114;2022-11-15T13:57:24;4.16;;;3.02;;
12535;SDS011;6334;48.696;2.114;2022-11-15T13:59:59;3.70;;;3.40;;
12535;SDS011;6334;48.696;2.114;2022-11-15T14:02:31;4.03;;;3.10;;
12535;SDS011;6334;48.696;2.114;2022-11-15T14:05:01;3.80;;;3.15;;
12535;SDS011;6334;48.696;2.114;2022-11-15T14:07:32;6.57;;;3.30;;
12535;SDS011;6334;48.696;2.114;2022-11-15T14:13:10;4.47;;;3.50;;
12535;SDS011;6334;48.696;2.114;2022-11-15T14:15:37;5.15;;;3.22;;
12535;SDS011;6334;48.696;2.114;2022-11-15T14:18:38;5.27;;;3.83;;
12535;SDS011;6334;48.696;2.114;2022-11-15T14:20:39;4.70;;;3.43;;
12535;SDS011;6334;48.696;2.114;2022-11-15T14:23:23;4.67;;;3.57;;
12535;SDS011;6334;48.696;2.114;2022-11-15T14:25:53;4.67;;;3.60;;
12535;SDS011;6334;48.696;2.114;2022-11-15T14:30:56;4.90;;;3.80;;
12535;SDS011;6334;48.696;2.114;2022-11-15T14:33:26;4.60;;;3.87;;
12535;SDS011;6334;48.696;2.114;2022-11-15T14:36:04;4.30;;;3.90;;
12535;SDS011;6334;48.696;2.114;2022-11-15T14:38:44;6.48;;;4.10;;
12535;SDS011;6334;48.696;2.114;2022-11-15T14:41:20;4.47;;;3.50;;
12535;SDS011;6334;48.696;2.114;2022-11-15T14:43:52;4.50;;;3.77;;
12535;SDS011;6334;48.696;2.114;2022-11-15T14:46:24;5.03;;;3.91;;
12535;SDS011;6334;48.696;2.114;2022-11-15T14:48:54;5.90;;;4.07;;
12535;SDS011;6334;48.696;2.114;2022-11-15T14:53:59;3.92;;;3.50;;
12535;SDS011;6334;48.696;2.114;2022-11-15T14:56:28;6.28;;;4.18;;
12535;SDS011;6334;48.696;2.114;2022-11-15T14:59:00;4.80;;;3.60;;
12535;SDS011;6334;48.696;2.114;2022-11-15T15:01:31;4.79;;;3.97;;
12535;SDS011;6334;48.696;2.114;2022-11-15T15:04:02;4.90;;;3.90;;
12535;SDS011;6334;48.696;2.114;2022-11-15T15:06:31;5.60;;;4.37;;
12535;SDS011;6334;48.696;2.114;2022-11-15T15:09:02;6.07;;;4.00;;
12535;SDS011;6334;48.696;2.114;2022-11-15T15:11:32;6.20;;;4.37;;
12535;SDS011;6334;48.696;2.114;2022-11-15T15:14:03;4.53;;;4.03;;
12535;SDS011;6334;48.696;2.114;2022-11-15T15:16:33;6.43;;;4.60;;
12535;SDS011;6334;48.696;2.114;2022-11-15T15:19:04;6.57;;;4.15;;
12535;SDS011;6334;48.696;2.114;2022-11-15T15:21:35;9.01;;;5.21;;
12535;SDS011;6334;48.696;2.114;2022-11-15T15:24:04;9.10;;;5.80;;
12535;SDS011;6334;48.696;2.114;2022-11-15T15:26:36;9.70;;;4.90;;
12535;SDS011;6334;48.696;2.114;2022-11-15T15:29:07;9.02;;;4.90;;
12535;SDS011;6334;48.696;2.114;2022-11-15T15:31:45;8.50;;;5.20;;
12535;SDS011;6334;48.696;2.114;2022-11-15T15:34:17;6.32;;;4.20;;
12535;SDS011;6334;48.696;2.114;2022-11-15T15:36:48;4.80;;;4.10;;
12535;SDS011;6334;48.696;2.114;2022-11-15T15:39:19;5.60;;;4.37;;
12535;SDS011;6334;48.696;2.114;2022-11-15T15:41:49;6.07;;;4.37;;
12535;SDS011;6334;48.696;2.114;2022-11-15T15:44:19;5.50;;;4.10;;
12535;SDS011;6334;48.696;2.114;2022-11-15T15:46:48;5.40;;;4.17;;
12535;SDS011;6334;48.696;2.114;2022-11-15T15:49:19;6.23;;;4.20;;
12535;SDS011;6334;48.696;2.114;2022-11-15T15:51:50;4.03;;;3.73;;
12535;SDS011;6334;48.696;2.114;2022-11-15T15:54:21;4.94;;;4.10;;
12535;SDS011;6334;48.696;2.114;2022-11-15T15:56:51;4.87;;;3.80;;
12535;SDS011;6334;48.696;2.114;2022-11-15T15:59:21;4.23;;;3.70;;
12535;SDS011;6334;48.696;2.114;2022-11-15T16:01:52;5.64;;;4.20;;
12535;SDS011;6334;48.696;2.114;2022-11-15T16:04:23;4.07;;;3.60;;
12535;SDS011;6334;48.696;2.114;2022-11-15T16:07:03;4.10;;;3.75;;
12535;SDS011;6334;48.696;2.114;2022-11-15T16:09:29;6.27;;;4.10;;
12535;SDS011;6334;48.696;2.114;2022-11-15T16:12:17;4.63;;;3.90;;
12535;SDS011;6334;48.696;2.114;2022-11-15T16:14:49;4.70;;;4.00;;
12535;SDS011;6334;48.696;2.114;2022-11-15T16:17:20;4.20;;;3.70;;
12535;SDS011;6334;48.696;2.114;2022-11-15T16:19:51;5.50;;;4.00;;
12535;SDS011;6334;48.696;2.114;2022-11-15T16:22:21;5.13;;;4.10;;
12535;SDS011;6334;48.696;2.114;2022-11-15T16:24:52;5.37;;;3.77;;
12535;SDS011;6334;48.696;2.114;2022-11-15T16:27:23;4.30;;;3.90;;
12535;SDS011;6334;48.696;2.114;2022-11-15T16:29:53;5.00;;;3.70;;
12535;SDS011;6334;48.696;2.114;2022-11-15T16:32:24;5.20;;;3.97;;
12535;SDS011;6334;48.696;2.114;2022-11-15T16:34:54;5.43;;;4.20;;
12535;SDS011;6334;48.696;2.114;2022-11-15T16:37:28;5.87;;;4.16;;
12535;SDS011;6334;48.696;2.114;2022-11-15T16:39:58;7.67;;;4.73;;
12535;SDS011;6334;48.696;2.114;2022-11-15T16:42:27;6.87;;;4.60;;
12535;SDS011;6334;48.696;2.114;2022-11-15T16:45:00;5.05;;;4.10;;
12535;SDS011;6334;48.696;2.114;2022-11-15T16:47:31;4.60;;;4.03;;
12535;SDS011;6334;48.696;2.114;2022-11-15T16:50:01;6.47;;;4.63;;
12535;SDS011;6334;48.696;2.114;2022-11-15T16:52:32;6.30;;;4.30;;
12535;SDS011;6334;48.696;2.114;2022-11-15T16:55:02;4.95;;;4.28;;
12535;SDS011;6334;48.696;2.114;2022-11-15T16:57:35;5.20;;;4.24;;
12535;SDS011;6334;48.696;2.114;2022-11-15T17:00:06;5.43;;;3.90;;
12535;SDS011;6334;48.696;2.114;2022-11-15T17:02:37;7.40;;;4.37;;
12535;SDS011;6334;48.696;2.114;2022-11-15T17:05:07;6.17;;;4.40;;
12535;SDS011;6334;48.696;2.114;2022-11-15T17:07:38;8.53;;;4.37;;
12535;SDS011;6334;48.696;2.114;2022-11-15T17:10:10;4.50;;;3.87;;
12535;SDS011;6334;48.696;2.114;2022-11-15T17:12:41;4.33;;;3.93;;
12535;SDS011;6334;48.696;2.114;2022-11-15T17:15:12;5.67;;;4.23;;
12535;SDS011;6334;48.696;2.114;2022-11-15T17:17:43;5.05;;;3.92;;
12535;SDS011;6334;48.696;2.114;2022-11-15T17:20:20;4.20;;;3.80;;
12535;SDS011;6334;48.696;2.114;2022-11-15T17:22:49;4.93;;;4.20;;
12535;SDS011;6334;48.696;2.114;2022-11-15T17:25:19;5.80;;;4.53;;
12535;SDS011;6334;48.696;2.114;2022-11-15T17:31:10;5.63;;;4.10;;
12535;SDS011;6334;48.696;2.114;2022-11-15T17:33:40;6.34;;;4.10;;
12535;SDS011;6334;48.696;2.114;2022-11-15T17:36:11;4.83;;;4.17;;
12535;SDS011;6334;48.696;2.114;2022-11-15T17:38:41;4.50;;;4.10;;
12535;SDS011;6334;48.696;2.114;2022-11-15T17:41:13;4.57;;;3.97;;
12535;SDS011;6334;48.696;2.114;2022-11-15T17:46:36;6.83;;;4.70;;
12535;SDS011;6334;48.696;2.114;2022-11-15T17:49:06;9.17;;;5.17;;
12535;SDS011;6334;48.696;2.114;2022-11-15T17:51:36;7.87;;;4.97;;
12535;SDS011;6334;48.696;2.114;2022-11-15T17:54:12;10.63;;;5.07;;
12535;SDS011;6334;48.696;2.114;2022-11-15T17:58:02;6.20;;;4.70;;
12535;SDS011;6334;48.696;2.114;2022-11-15T18:00:34;5.37;;;4.00;;
12535;SDS011;6334;48.696;2.114;2022-11-15T18:03:04;4.87;;;4.33;;
12535;SDS011;6334;48.696;2.114;2022-11-15T18:05:34;5.93;;;4.20;;
12535;SDS011;6334;48.696;2.114;2022-11-15T18:08:05;7.17;;;4.70;;
12535;SDS011;6334;48.696;2.114;2022-11-15T18:10:35;6.53;;;4.60;;